createdAt,value
2022-12-07T00:00:56.166Z,0.16
2022-12-07T00:01:57.716Z,0.20
2022-12-07T00:02:59.363Z,0.10
2022-12-07T00:04:02.543Z,0.13
2022-12-07T00:05:04.726Z,0.27
2022-12-07T00:06:07.640Z,0.13
2022-12-07T00:07:09.153Z,0.12
2022-12-07T00:08:10.763Z,0.07
2022-12-07T00:09:14.056Z,0.25
2022-12-07T00:10:15.690Z,0.36
2022-12-07T00:11:19.554Z,0.43
2022-12-07T00:12:21.153Z,0.28
2022-12-07T00:13:22.715Z,0.15
2022-12-07T00:14:24.241Z,0.20
2022-12-07T00:15:25.813Z,0.14
2022-12-07T00:16:31.927Z,0.33
2022-12-07T00:17:33.648Z,0.47
2022-12-07T00:18:35.809Z,0.51
2022-12-07T00:19:37.364Z,0.67
2022-12-07T00:20:38.877Z,0.59
2022-12-07T00:21:40.710Z,0.54
2022-12-07T00:22:42.295Z,0.72
2022-12-07T00:23:46.893Z,0.40
2022-12-07T00:24:48.533Z,0.25
2022-12-07T00:25:50.066Z,0.26
2022-12-07T00:26:51.583Z,0.50
2022-12-07T00:27:53.912Z,0.46
2022-12-07T00:28:56.846Z,0.19
2022-12-07T00:29:58.630Z,0.26
2022-12-07T00:31:05.438Z,0.34
2022-12-07T00:32:08.321Z,0.65
2022-12-07T00:33:09.959Z,0.78
2022-12-07T00:34:14.314Z,0.56
2022-12-07T00:35:15.950Z,0.19
2022-12-07T00:36:24.687Z,0.20
2022-12-07T00:37:28.044Z,0.58
2022-12-07T00:38:31.583Z,0.67
2022-12-07T00:39:33.148Z,0.47
2022-12-07T00:40:34.684Z,0.24
2022-12-07T00:41:36.207Z,0.21
2022-12-07T00:42:37.729Z,0.29
2022-12-07T00:43:39.815Z,0.54
2022-12-07T00:44:41.363Z,0.69
2022-12-07T00:45:42.935Z,0.80
2022-12-07T00:46:44.570Z,0.85
2022-12-07T00:47:47.445Z,0.88
2022-12-07T00:48:50.033Z,0.88
2022-12-07T00:49:51.603Z,1.02
2022-12-07T00:50:53.380Z,1.04
2022-12-07T00:51:54.906Z,1.07
2022-12-07T00:52:56.450Z,0.91
2022-12-07T00:53:58.000Z,0.80
2022-12-07T00:54:59.522Z,0.83
2022-12-07T00:56:06.121Z,0.67
2022-12-07T00:57:07.674Z,0.55
2022-12-07T00:58:09.522Z,0.48
2022-12-07T00:59:13.846Z,0.45
2022-12-07T01:00:16.041Z,0.63
2022-12-07T01:01:17.687Z,0.48
2022-12-07T01:02:19.306Z,0.65
2022-12-07T01:03:22.333Z,0.89
2022-12-07T01:04:24.141Z,1.04
2022-12-07T01:05:25.717Z,1.03
2022-12-07T01:06:27.401Z,1.07
2022-12-07T01:07:28.941Z,0.65
2022-12-07T01:08:32.250Z,0.67
2022-12-07T01:09:33.805Z,0.83
2022-12-07T01:10:35.332Z,1.07
2022-12-07T01:11:37.008Z,1.14
2022-12-07T01:12:38.535Z,1.07
2022-12-07T01:13:40.132Z,0.80
2022-12-07T01:14:42.775Z,0.96
2022-12-07T01:15:45.360Z,0.88
2022-12-07T01:16:46.981Z,1.10
2022-12-07T01:17:48.784Z,1.14
2022-12-07T01:18:54.153Z,1.21
2022-12-07T01:19:55.746Z,1.35
2022-12-07T01:21:01.943Z,1.46
2022-12-07T01:22:03.565Z,1.50
2022-12-07T01:23:05.487Z,1.45
2022-12-07T01:24:10.096Z,1.41
2022-12-07T01:25:12.551Z,1.50
2022-12-07T01:26:16.495Z,1.56
2022-12-07T01:27:18.102Z,1.45
2022-12-07T01:28:19.602Z,1.50
2022-12-07T01:29:21.138Z,1.70
2022-12-07T01:30:22.683Z,1.74
2022-12-07T01:31:26.584Z,1.76
2022-12-07T01:32:29.645Z,1.68
2022-12-07T01:33:33.539Z,1.73
2022-12-07T01:34:36.445Z,1.74
2022-12-07T01:35:38.018Z,1.75
2022-12-07T01:36:39.677Z,1.86
2022-12-07T01:37:41.259Z,1.80
2022-12-07T01:38:43.644Z,1.78
2022-12-07T01:39:45.274Z,1.82
2022-12-07T01:40:54.013Z,1.89
2022-12-07T01:41:55.621Z,1.93
2022-12-07T01:42:57.111Z,1.97
2022-12-07T01:44:16.527Z,2.04
2022-12-07T01:45:45.239Z,2.05
2022-12-07T01:46:48.741Z,1.96
2022-12-07T01:47:54.661Z,1.89
2022-12-07T01:48:56.215Z,1.91
2022-12-07T01:49:59.304Z,2.05
2022-12-07T01:51:04.628Z,2.12
2022-12-07T01:52:15.252Z,2.16
2022-12-07T01:53:18.178Z,2.21
2022-12-07T01:54:22.436Z,2.23
2022-12-07T01:55:24.471Z,2.22
2022-12-07T01:56:28.954Z,2.27
2022-12-07T01:57:34.396Z,2.27
2022-12-07T01:58:36.649Z,2.23
2022-12-07T01:59:38.833Z,2.28
2022-12-07T02:00:41.484Z,2.22
2022-12-07T02:01:43.130Z,2.05
2022-12-07T02:02:48.787Z,2.18
2022-12-07T02:03:50.466Z,2.14
2022-12-07T02:04:53.439Z,2.22
2022-12-07T02:05:56.875Z,2.27
2022-12-07T02:06:58.872Z,2.25
2022-12-07T02:08:01.102Z,2.15
2022-12-07T02:09:02.672Z,1.99
2022-12-07T02:10:14.021Z,2.00
2022-12-07T02:11:16.616Z,2.14
2022-12-07T02:12:18.491Z,1.91
2022-12-07T02:13:24.780Z,2.06
2022-12-07T02:14:26.361Z,1.86
2022-12-07T02:15:33.878Z,1.95
2022-12-07T02:16:42.971Z,2.07
2022-12-07T02:17:55.847Z,1.84
2022-12-07T02:19:15.755Z,1.89
2022-12-07T02:20:28.774Z,2.01
2022-12-07T02:21:41.801Z,1.89
2022-12-07T02:23:16.543Z,1.81
2022-12-07T02:24:46.595Z,1.71
2022-12-07T02:26:13.817Z,1.80
2022-12-07T02:27:35.771Z,1.96
2022-12-07T02:28:40.842Z,1.91
2022-12-07T02:29:48.705Z,2.01
2022-12-07T02:30:53.116Z,2.01
2022-12-07T02:32:03.058Z,1.98
2022-12-07T02:33:08.315Z,2.01
2022-12-07T02:34:17.539Z,2.00
2022-12-07T02:35:22.664Z,2.01
2022-12-07T02:36:29.465Z,1.92
2022-12-07T02:37:38.846Z,2.04
2022-12-07T02:38:48.192Z,2.16
2022-12-07T02:39:54.136Z,2.18
2022-12-07T02:41:01.529Z,2.23
2022-12-07T02:42:10.336Z,2.26
2022-12-07T02:43:17.684Z,2.19
2022-12-07T02:44:23.278Z,2.14
2022-12-07T02:45:29.243Z,2.20
2022-12-07T02:46:34.782Z,2.27
2022-12-07T02:47:37.818Z,2.33
2022-12-07T02:48:42.489Z,2.31
2022-12-07T02:49:44.131Z,2.33
2022-12-07T02:50:46.521Z,2.30
2022-12-07T02:51:48.053Z,2.10
2022-12-07T02:52:49.847Z,2.17
2022-12-07T02:53:51.340Z,2.15
2022-12-07T02:54:52.869Z,2.08
2022-12-07T02:55:54.422Z,2.11
2022-12-07T02:57:03.607Z,2.01
2022-12-07T02:58:23.113Z,1.82
2022-12-07T02:59:35.812Z,1.82
2022-12-07T03:00:50.417Z,1.82
2022-12-07T03:01:59.977Z,2.05
2022-12-07T03:03:10.155Z,1.45
2022-12-07T03:04:27.896Z,1.76
2022-12-07T03:05:45.195Z,1.93
2022-12-07T03:06:54.414Z,1.94
2022-12-07T03:08:03.698Z,2.09
2022-12-07T03:09:14.664Z,1.89
2022-12-07T03:10:25.725Z,1.88
2022-12-07T03:11:34.934Z,1.97
2022-12-07T03:12:43.279Z,1.92
2022-12-07T03:13:51.512Z,2.12
2022-12-07T03:15:01.782Z,2.21
2022-12-07T03:16:13.822Z,2.03
2022-12-07T03:17:19.980Z,1.94
2022-12-07T03:18:23.805Z,1.78
2022-12-07T03:19:27.919Z,2.17
2022-12-07T03:20:30.889Z,2.20
2022-12-07T03:21:36.368Z,1.95
2022-12-07T03:22:40.887Z,2.12
2022-12-07T03:23:45.169Z,2.14
2022-12-07T03:24:53.355Z,2.02
2022-12-07T03:26:00.784Z,1.93
2022-12-07T03:27:07.650Z,1.68
2022-12-07T03:28:11.062Z,1.96
2022-12-07T03:29:17.587Z,2.13
2022-12-07T03:30:21.730Z,2.24
2022-12-07T03:31:29.675Z,2.33
2022-12-07T03:32:36.138Z,2.28
2022-12-07T03:33:43.255Z,2.33
2022-12-07T03:34:50.420Z,2.37
2022-12-07T03:35:58.225Z,2.35
2022-12-07T03:37:04.575Z,2.32
2022-12-07T03:38:14.698Z,2.40
2022-12-07T03:39:24.561Z,2.46
2022-12-07T03:40:31.726Z,2.50
2022-12-07T03:41:40.819Z,2.49
2022-12-07T03:42:45.540Z,2.52
2022-12-07T03:43:47.312Z,2.54
2022-12-07T03:44:50.110Z,2.57
2022-12-07T03:46:08.357Z,2.60
2022-12-07T03:47:17.671Z,2.63
2022-12-07T03:48:25.824Z,2.64
2022-12-07T03:49:31.541Z,2.60
2022-12-07T03:50:39.485Z,2.65
2022-12-07T03:51:47.092Z,2.42
2022-12-07T03:52:55.572Z,2.55
2022-12-07T03:54:03.210Z,2.33
2022-12-07T03:55:09.621Z,2.09
2022-12-07T03:56:12.758Z,2.22
2022-12-07T03:57:15.492Z,2.43
2022-12-07T03:58:21.555Z,2.19
2022-12-07T03:59:24.025Z,1.95
2022-12-07T04:00:26.135Z,2.08
2022-12-07T04:01:28.618Z,2.17
2022-12-07T04:02:31.698Z,2.02
2022-12-07T04:03:33.227Z,1.97
2022-12-07T04:04:35.410Z,1.71
2022-12-07T04:05:37.512Z,1.38
2022-12-07T04:06:39.007Z,1.41
2022-12-07T04:07:42.249Z,1.51
2022-12-07T04:08:43.902Z,1.50
2022-12-07T04:09:45.447Z,1.25
2022-12-07T04:10:47.103Z,1.22
2022-12-07T04:11:48.853Z,1.33
2022-12-07T04:12:50.363Z,1.17
2022-12-07T04:13:51.877Z,1.24
2022-12-07T04:14:53.391Z,1.20
2022-12-07T04:15:54.967Z,0.67
2022-12-07T04:16:58.415Z,1.17
2022-12-07T04:18:01.352Z,1.14
2022-12-07T04:19:02.913Z,0.98
2022-12-07T04:20:05.613Z,0.84
2022-12-07T04:21:07.312Z,1.05
2022-12-07T04:22:09.171Z,1.22
2022-12-07T04:23:10.715Z,1.05
2022-12-07T04:24:13.737Z,1.05
2022-12-07T04:25:15.345Z,0.96
2022-12-07T04:26:16.880Z,0.77
2022-12-07T04:27:18.405Z,0.79
2022-12-07T04:28:19.977Z,0.70
2022-12-07T04:29:22.032Z,0.72
2022-12-07T04:30:23.572Z,0.54
2022-12-07T04:31:25.143Z,0.70
2022-12-07T04:32:26.722Z,0.35
2022-12-07T04:33:29.603Z,0.54
2022-12-07T04:34:31.203Z,0.37
2022-12-07T04:35:32.689Z,0.63
2022-12-07T04:36:34.619Z,0.76
2022-12-07T04:37:36.164Z,0.81
2022-12-07T04:38:37.684Z,0.75
2022-12-07T04:39:39.284Z,0.76
2022-12-07T04:40:40.809Z,0.64
2022-12-07T04:41:42.328Z,0.66
2022-12-07T04:42:43.886Z,0.71
2022-12-07T04:43:45.417Z,0.74
2022-12-07T04:44:46.946Z,0.60
2022-12-07T04:45:48.994Z,0.72
2022-12-07T04:46:51.392Z,0.63
2022-12-07T04:47:52.922Z,0.75
2022-12-07T04:48:56.011Z,0.77
2022-12-07T04:49:57.503Z,0.22
2022-12-07T04:50:59.014Z,0.33
2022-12-07T04:52:00.632Z,0.25
2022-12-07T04:53:02.119Z,-0.05
2022-12-07T04:54:04.105Z,0.08
2022-12-07T04:55:06.099Z,-0.09
2022-12-07T04:56:07.752Z,0.29
2022-12-07T04:57:09.242Z,0.21
2022-12-07T04:58:10.791Z,0.30
2022-12-07T04:59:13.089Z,0.28
2022-12-07T05:00:14.857Z,0.07
2022-12-07T05:01:17.898Z,0.17
2022-12-07T05:02:19.589Z,0.03
2022-12-07T05:03:21.210Z,0.17
2022-12-07T05:04:24.072Z,0.00
2022-12-07T05:05:25.599Z,-0.01
2022-12-07T05:06:27.261Z,0.09
2022-12-07T05:07:28.814Z,0.02
2022-12-07T05:08:30.485Z,0.29
2022-12-07T05:09:32.080Z,0.37
2022-12-07T05:10:33.658Z,0.39
2022-12-07T05:11:35.186Z,0.48
2022-12-07T05:12:36.687Z,0.49
2022-12-07T05:13:38.221Z,0.53
2022-12-07T05:14:39.732Z,0.52
2022-12-07T05:15:41.539Z,0.55
2022-12-07T05:16:44.710Z,0.54
2022-12-07T05:17:46.291Z,0.51
2022-12-07T05:18:47.783Z,0.31
2022-12-07T05:19:50.628Z,0.30
2022-12-07T05:20:52.316Z,0.33
2022-12-07T05:21:54.391Z,0.25
2022-12-07T05:22:55.896Z,0.14
2022-12-07T05:23:57.446Z,0.39
2022-12-07T05:24:58.974Z,0.47
2022-12-07T05:26:01.330Z,0.50
2022-12-07T05:27:02.926Z,0.58
2022-12-07T05:28:05.441Z,0.51
2022-12-07T05:29:08.365Z,0.59
2022-12-07T05:30:10.710Z,0.52
2022-12-07T05:31:12.266Z,0.60
2022-12-07T05:32:13.876Z,0.26
2022-12-07T05:33:15.386Z,0.07
2022-12-07T05:34:16.956Z,0.02
2022-12-07T05:35:20.224Z,0.25
2022-12-07T05:36:22.104Z,0.32
2022-12-07T05:37:23.614Z,0.47
2022-12-07T05:38:25.185Z,0.37
2022-12-07T05:39:26.691Z,0.52
2022-12-07T05:40:28.211Z,0.49
2022-12-07T05:41:29.716Z,0.43
2022-12-07T05:42:31.256Z,0.38
2022-12-07T05:43:33.050Z,0.22
2022-12-07T05:44:34.548Z,0.32
2022-12-07T05:45:36.125Z,0.32
2022-12-07T05:46:37.638Z,0.14
2022-12-07T05:47:39.174Z,0.08
2022-12-07T05:48:40.718Z,0.11
2022-12-07T05:49:42.258Z,0.30
2022-12-07T05:50:45.116Z,0.23
2022-12-07T05:51:46.631Z,0.19
2022-12-07T05:52:48.111Z,0.14
2022-12-07T05:53:49.695Z,0.31
2022-12-07T05:54:51.431Z,0.42
2022-12-07T05:55:53.174Z,0.59
2022-12-07T05:56:54.857Z,0.61
2022-12-07T05:57:56.386Z,0.34
2022-12-07T05:58:57.903Z,0.44
2022-12-07T05:59:59.504Z,0.50
2022-12-07T06:01:10.058Z,0.54
2022-12-07T06:02:13.204Z,0.57
2022-12-07T06:03:14.928Z,0.64
2022-12-07T06:04:16.883Z,0.69
2022-12-07T06:05:18.465Z,0.69
2022-12-07T06:06:21.490Z,0.67
2022-12-07T06:07:23.109Z,0.66
2022-12-07T06:08:24.682Z,0.70
2022-12-07T06:09:28.424Z,0.80
2022-12-07T06:10:29.942Z,0.82
2022-12-07T06:11:31.467Z,0.68
2022-12-07T06:12:32.963Z,0.75
2022-12-07T06:13:36.354Z,0.58
2022-12-07T06:14:38.395Z,0.71
2022-12-07T06:15:40.387Z,0.65
2022-12-07T06:16:42.522Z,0.71
2022-12-07T06:17:44.950Z,0.76
2022-12-07T06:18:47.128Z,0.72
2022-12-07T06:19:48.645Z,0.76
2022-12-07T06:20:50.145Z,0.52
2022-12-07T06:21:53.270Z,0.63
2022-12-07T06:22:54.791Z,0.63
2022-12-07T06:23:56.359Z,0.34
2022-12-07T06:24:57.883Z,0.53
2022-12-07T06:25:59.391Z,0.64
2022-12-07T06:27:00.903Z,0.65
2022-12-07T06:28:02.449Z,0.65
2022-12-07T06:29:04.118Z,0.55
2022-12-07T06:30:06.792Z,0.52
2022-12-07T06:31:13.627Z,0.64
2022-12-07T06:32:15.813Z,0.69
2022-12-07T06:33:17.321Z,0.77
2022-12-07T06:34:21.724Z,0.76
2022-12-07T06:35:23.238Z,0.69
2022-12-07T06:36:27.337Z,0.67
2022-12-07T06:37:30.364Z,0.71
2022-12-07T06:38:31.951Z,0.71
2022-12-07T06:39:33.499Z,0.77
2022-12-07T06:40:35.143Z,0.79
2022-12-07T06:41:37.299Z,0.81
2022-12-07T06:42:38.821Z,0.76
2022-12-07T06:43:40.330Z,0.76
2022-12-07T06:44:41.851Z,0.78
2022-12-07T06:45:43.777Z,0.80
2022-12-07T06:46:45.559Z,0.80
2022-12-07T06:47:47.053Z,0.73
2022-12-07T06:48:48.913Z,0.77
2022-12-07T06:49:50.427Z,0.72
2022-12-07T06:50:55.022Z,0.66
2022-12-07T06:51:57.007Z,0.71
2022-12-07T06:52:59.879Z,0.69
2022-12-07T06:54:01.385Z,0.69
2022-12-07T06:55:02.959Z,0.69
2022-12-07T06:56:05.367Z,0.64
2022-12-07T06:57:06.901Z,0.64
2022-12-07T06:58:08.427Z,0.62
2022-12-07T06:59:10.099Z,0.67
2022-12-07T07:00:18.317Z,0.62
2022-12-07T07:01:23.063Z,0.63
2022-12-07T07:02:24.757Z,0.72
2022-12-07T07:03:26.292Z,0.63
2022-12-07T07:04:27.798Z,0.62
2022-12-07T07:05:29.384Z,0.65
2022-12-07T07:06:30.883Z,0.62
2022-12-07T07:07:51.694Z,0.71
2022-12-07T07:08:56.391Z,0.68
2022-12-07T07:09:57.944Z,0.76
2022-12-07T07:10:59.467Z,0.78
2022-12-07T07:12:01.018Z,0.79
2022-12-07T07:13:03.257Z,0.87
2022-12-07T07:14:04.791Z,0.99
2022-12-07T07:15:07.307Z,1.08
2022-12-07T07:16:09.265Z,1.14
2022-12-07T07:17:10.878Z,1.24
2022-12-07T07:18:12.801Z,1.29
2022-12-07T07:19:14.333Z,1.31
2022-12-07T07:20:16.043Z,1.32
2022-12-07T07:21:17.567Z,1.34
2022-12-07T07:22:19.099Z,1.30
2022-12-07T07:23:21.915Z,1.23
2022-12-07T07:24:24.841Z,1.21
2022-12-07T07:25:26.392Z,1.13
2022-12-07T07:26:27.904Z,1.12
2022-12-07T07:27:29.423Z,1.09
2022-12-07T07:28:30.943Z,1.10
2022-12-07T07:29:32.470Z,1.00
2022-12-07T07:30:34.081Z,0.91
2022-12-07T07:31:35.615Z,0.78
2022-12-07T07:32:37.158Z,0.68
2022-12-07T07:33:38.681Z,0.68
2022-12-07T07:34:40.890Z,0.70
2022-12-07T07:35:42.426Z,0.60
2022-12-07T07:36:43.965Z,0.84
2022-12-07T07:37:45.495Z,0.82
2022-12-07T07:38:47.018Z,0.83
2022-12-07T07:39:49.942Z,0.90
2022-12-07T07:40:51.458Z,0.86
2022-12-07T07:41:52.966Z,1.00
2022-12-07T07:42:55.024Z,1.00
2022-12-07T07:43:56.547Z,1.02
2022-12-07T07:44:58.080Z,1.15
2022-12-07T07:45:59.689Z,1.13
2022-12-07T07:47:07.408Z,1.08
2022-12-07T07:48:09.092Z,1.00
2022-12-07T07:49:10.869Z,1.09
2022-12-07T07:50:12.413Z,1.19
2022-12-07T07:51:13.982Z,1.14
2022-12-07T07:52:15.481Z,1.07
2022-12-07T07:53:16.993Z,1.17
2022-12-07T07:54:18.586Z,1.27
2022-12-07T07:55:21.455Z,1.20
2022-12-07T07:56:23.002Z,1.27
2022-12-07T07:57:24.574Z,1.30
2022-12-07T07:58:26.144Z,1.13
2022-12-07T07:59:27.714Z,1.22
2022-12-07T08:00:29.206Z,0.95
2022-12-07T08:01:30.833Z,1.14
2022-12-07T08:02:32.485Z,1.07
2022-12-07T08:03:34.045Z,1.42
2022-12-07T08:04:36.976Z,1.52
2022-12-07T08:05:38.984Z,1.51
2022-12-07T08:06:40.516Z,1.52
2022-12-07T08:07:42.213Z,1.56
2022-12-07T08:08:43.859Z,1.56
2022-12-07T08:09:45.378Z,1.48
2022-12-07T08:10:48.264Z,1.44
2022-12-07T08:11:49.762Z,1.32
2022-12-07T08:12:51.255Z,1.33
2022-12-07T08:13:52.791Z,1.33
2022-12-07T08:14:54.296Z,1.39
2022-12-07T08:15:55.862Z,1.48
2022-12-07T08:16:57.659Z,1.38
2022-12-07T08:17:59.236Z,1.32
2022-12-07T08:19:00.739Z,1.22
2022-12-07T08:20:11.451Z,1.45
2022-12-07T08:21:15.280Z,1.36
2022-12-07T08:22:16.818Z,1.31
2022-12-07T08:23:18.368Z,1.36
2022-12-07T08:24:19.874Z,1.41
2022-12-07T08:25:21.832Z,1.42
2022-12-07T08:26:24.663Z,1.62
2022-12-07T08:27:26.184Z,1.59
2022-12-07T08:28:27.757Z,1.69
2022-12-07T08:29:29.328Z,1.67
2022-12-07T08:30:31.742Z,1.65
2022-12-07T08:31:33.619Z,1.68
2022-12-07T08:32:35.200Z,1.93
2022-12-07T08:33:37.403Z,1.91
2022-12-07T08:34:38.925Z,1.76
2022-12-07T08:35:40.447Z,1.95
2022-12-07T08:36:42.144Z,1.78
2022-12-07T08:37:43.760Z,1.96
2022-12-07T08:39:08.088Z,1.85
2022-12-07T08:40:08.858Z,1.70
2022-12-07T08:41:10.392Z,1.77
2022-12-07T08:42:13.270Z,1.70
2022-12-07T08:43:15.809Z,1.65
2022-12-07T08:44:17.359Z,1.44
2022-12-07T08:45:24.946Z,1.42
2022-12-07T08:46:35.642Z,1.47
2022-12-07T08:47:39.659Z,1.54
2022-12-07T08:48:47.485Z,1.57
2022-12-07T08:49:51.059Z,1.57
2022-12-07T08:50:52.978Z,1.59
2022-12-07T08:51:55.720Z,1.60
2022-12-07T08:52:59.655Z,1.56
2022-12-07T08:54:04.961Z,1.54
2022-12-07T08:55:07.501Z,1.55
2022-12-07T08:56:09.527Z,1.41
2022-12-07T08:57:12.750Z,1.45
2022-12-07T08:58:14.682Z,1.32
2022-12-07T08:59:18.757Z,1.32
2022-12-07T09:00:20.785Z,1.38
2022-12-07T09:01:22.358Z,1.32
2022-12-07T09:02:23.934Z,1.34
2022-12-07T09:03:25.479Z,1.33
2022-12-07T09:04:27.028Z,1.37
2022-12-07T09:05:28.585Z,1.35
2022-12-07T09:06:30.381Z,1.47
2022-12-07T09:07:35.040Z,1.31
2022-12-07T09:08:52.119Z,1.48
2022-12-07T09:09:53.595Z,1.51
2022-12-07T09:10:55.114Z,1.45
2022-12-07T09:11:56.598Z,1.34
2022-12-07T09:12:59.691Z,1.38
2022-12-07T09:14:01.223Z,1.52
2022-12-07T09:15:03.052Z,1.56
2022-12-07T09:16:05.304Z,1.50
2022-12-07T09:17:08.414Z,1.58
2022-12-07T09:18:09.939Z,1.63
2022-12-07T09:19:11.524Z,1.77
2022-12-07T09:20:13.526Z,1.78
2022-12-07T09:21:15.052Z,1.60
2022-12-07T09:22:16.558Z,1.61
2022-12-07T09:23:18.163Z,1.59
2022-12-07T09:24:19.676Z,1.71
2022-12-07T09:25:21.280Z,1.58
2022-12-07T09:26:22.839Z,1.79
2022-12-07T09:27:24.384Z,1.76
2022-12-07T09:28:27.351Z,1.66
2022-12-07T09:29:28.831Z,1.88
2022-12-07T09:30:30.314Z,1.88
2022-12-07T09:31:31.897Z,1.93
2022-12-07T09:32:33.518Z,1.88
2022-12-07T09:33:35.028Z,1.83
2022-12-07T09:34:36.614Z,1.78
2022-12-07T09:35:38.164Z,1.95
2022-12-07T09:36:39.672Z,2.05
2022-12-07T09:37:41.201Z,2.08
2022-12-07T09:38:43.716Z,2.06
2022-12-07T09:39:50.021Z,2.00
2022-12-07T09:40:51.931Z,1.89
2022-12-07T09:41:53.748Z,2.05
2022-12-07T09:42:56.410Z,1.82
2022-12-07T09:44:05.668Z,1.82
2022-12-07T09:45:12.631Z,1.79
2022-12-07T09:46:17.254Z,1.73
2022-12-07T09:47:18.853Z,1.76
2022-12-07T09:48:22.785Z,1.77
2022-12-07T09:49:26.068Z,1.58
2022-12-07T09:50:29.434Z,1.67
2022-12-07T09:51:32.137Z,1.71
2022-12-07T09:52:38.857Z,1.69
2022-12-07T09:53:42.339Z,1.49
2022-12-07T09:54:48.035Z,1.68
2022-12-07T09:55:49.676Z,1.54
2022-12-07T09:56:51.266Z,1.55
2022-12-07T09:57:53.543Z,1.66
2022-12-07T09:59:01.344Z,1.59
2022-12-07T10:00:07.453Z,1.69
2022-12-07T10:01:14.141Z,1.84
2022-12-07T10:02:28.750Z,1.97
2022-12-07T10:03:30.261Z,2.24
2022-12-07T10:04:31.860Z,2.02
2022-12-07T10:05:38.083Z,2.36
2022-12-07T10:06:39.872Z,2.40
2022-12-07T10:07:41.379Z,2.44
2022-12-07T10:08:42.952Z,2.21
2022-12-07T10:09:44.466Z,2.28
2022-12-07T10:10:50.974Z,2.36
2022-12-07T10:12:04.696Z,2.20
2022-12-07T10:13:08.907Z,2.25
2022-12-07T10:14:14.563Z,2.32
2022-12-07T10:15:16.127Z,2.26
2022-12-07T10:16:36.004Z,2.39
2022-12-07T10:17:39.519Z,2.47
2022-12-07T10:18:42.316Z,2.44
2022-12-07T10:19:43.850Z,2.44
2022-12-07T10:20:46.447Z,2.44
2022-12-07T10:22:05.721Z,2.30
2022-12-07T10:23:15.838Z,2.32
2022-12-07T10:24:17.351Z,2.44
2022-12-07T10:25:21.241Z,2.52
2022-12-07T10:26:33.300Z,2.56
2022-12-07T10:27:34.835Z,2.61
2022-12-07T10:28:41.933Z,2.68
2022-12-07T10:29:49.476Z,2.64
2022-12-07T10:30:54.982Z,2.62
2022-12-07T10:31:59.128Z,2.53
2022-12-07T10:33:00.665Z,2.56
2022-12-07T10:34:02.471Z,2.67
2022-12-07T10:35:23.681Z,2.71
2022-12-07T10:36:28.190Z,2.75
2022-12-07T10:37:29.717Z,2.65
2022-12-07T10:38:31.298Z,2.49
2022-12-07T10:39:42.376Z,2.49
2022-12-07T10:40:46.651Z,2.55
2022-12-07T10:41:56.166Z,2.45
2022-12-07T10:43:19.088Z,2.56
2022-12-07T10:44:22.969Z,2.70
2022-12-07T10:45:25.853Z,2.55
2022-12-07T10:46:58.046Z,2.42
2022-12-07T10:48:09.986Z,2.38
2022-12-07T10:50:03.068Z,2.43
2022-12-07T10:51:15.733Z,2.72
2022-12-07T10:52:29.706Z,2.70
2022-12-07T10:53:48.847Z,2.55
2022-12-07T10:55:05.896Z,2.60
2022-12-07T10:56:36.744Z,2.50
2022-12-07T10:57:54.660Z,2.46
2022-12-07T10:59:17.295Z,2.58
2022-12-07T11:00:21.837Z,2.76
2022-12-07T11:01:30.281Z,2.77
2022-12-07T11:03:04.719Z,2.77
2022-12-07T11:04:19.954Z,2.81
2022-12-07T11:05:28.600Z,2.80
2022-12-07T11:06:38.252Z,2.87
2022-12-07T11:07:53.518Z,2.69
2022-12-07T11:09:09.149Z,2.75
2022-12-07T11:10:18.453Z,2.62
2022-12-07T11:11:27.849Z,2.64
2022-12-07T11:12:44.317Z,2.56
2022-12-07T11:13:52.515Z,2.57
2022-12-07T11:15:01.492Z,2.62
2022-12-07T11:16:17.072Z,2.63
2022-12-07T11:17:30.853Z,2.69
2022-12-07T11:18:41.058Z,2.57
2022-12-07T11:20:03.505Z,2.55
2022-12-07T11:21:14.751Z,2.58
2022-12-07T11:22:23.012Z,2.45
2022-12-07T11:23:47.019Z,2.62
2022-12-07T11:24:56.036Z,2.73
2022-12-07T11:26:08.456Z,2.77
2022-12-07T11:27:20.798Z,2.86
2022-12-07T11:28:41.302Z,2.80
2022-12-07T11:29:56.611Z,2.71
2022-12-07T11:31:07.992Z,2.65
2022-12-07T11:32:15.656Z,2.78
2022-12-07T11:33:27.753Z,2.83
2022-12-07T11:34:40.891Z,2.99
2022-12-07T11:35:53.794Z,2.92
2022-12-07T11:36:56.083Z,2.93
2022-12-07T11:38:08.600Z,3.09
2022-12-07T11:39:20.159Z,2.98
2022-12-07T11:40:27.180Z,2.90
2022-12-07T11:41:33.963Z,2.92
2022-12-07T11:42:42.079Z,2.80
2022-12-07T11:43:53.841Z,2.84
2022-12-07T11:45:01.018Z,2.82
2022-12-07T11:46:07.174Z,2.77
2022-12-07T11:47:14.839Z,2.72
2022-12-07T11:48:23.347Z,2.89
2022-12-07T11:49:38.319Z,2.93
2022-12-07T11:50:42.735Z,2.83
2022-12-07T11:52:00.338Z,2.98
2022-12-07T11:53:10.282Z,3.06
2022-12-07T11:54:17.524Z,3.12
2022-12-07T11:55:25.779Z,2.96
2022-12-07T11:56:28.806Z,2.98
2022-12-07T11:57:38.917Z,3.04
2022-12-07T11:58:49.035Z,2.98
2022-12-07T11:59:53.800Z,2.97
2022-12-07T12:01:09.889Z,3.02
2022-12-07T12:02:15.427Z,3.07
2022-12-07T12:03:30.204Z,2.93
2022-12-07T12:04:48.334Z,2.96
2022-12-07T12:05:49.832Z,2.97
2022-12-07T12:06:51.734Z,2.89
2022-12-07T12:09:45.697Z,2.84
2022-12-07T12:10:59.838Z,2.89
2022-12-07T12:15:47.295Z,2.83
2022-12-07T12:17:20.932Z,2.84
2022-12-07T12:18:41.702Z,2.92
2022-12-07T12:19:56.367Z,2.92
2022-12-07T12:21:02.873Z,2.90
2022-12-07T12:22:13.885Z,2.91
2022-12-07T12:23:18.261Z,2.94
2022-12-07T12:24:24.639Z,2.99
2022-12-07T12:25:29.718Z,2.86
2022-12-07T12:26:34.103Z,2.87
2022-12-07T12:27:39.853Z,2.87
2022-12-07T12:28:50.571Z,2.77
2022-12-07T12:29:56.225Z,2.86
2022-12-07T12:31:15.404Z,2.97
2022-12-07T12:32:20.845Z,3.00
2022-12-07T12:33:32.738Z,2.94
2022-12-07T12:34:46.641Z,3.00
2022-12-07T12:36:18.779Z,3.16
2022-12-07T12:37:42.282Z,3.19
2022-12-07T12:38:51.145Z,3.03
2022-12-07T12:40:28.323Z,2.98
2022-12-07T12:42:06.229Z,2.88
2022-12-07T12:43:41.286Z,2.83
2022-12-07T12:45:18.538Z,2.75
2022-12-07T12:46:50.280Z,2.79
2022-12-07T12:47:59.360Z,2.71
2022-12-07T12:49:39.865Z,2.83
2022-12-07T12:50:42.734Z,2.90
2022-12-07T12:51:45.829Z,2.80
2022-12-07T12:52:53.796Z,2.79
2022-12-07T12:54:04.846Z,2.83
2022-12-07T12:55:15.608Z,2.78
2022-12-07T12:56:30.709Z,2.79
2022-12-07T12:57:33.858Z,2.84
2022-12-07T12:58:40.562Z,2.85
2022-12-07T12:59:43.236Z,2.85
2022-12-07T13:00:44.949Z,2.79
2022-12-07T13:01:47.688Z,2.84
2022-12-07T13:02:51.215Z,2.90
2022-12-07T13:03:54.007Z,2.90
2022-12-07T13:04:57.772Z,2.93
2022-12-07T13:06:20.080Z,2.88
2022-12-07T13:07:59.160Z,2.72
2022-12-07T13:09:01.179Z,2.83
2022-12-07T13:10:04.187Z,2.80
2022-12-07T13:11:19.116Z,2.84
2022-12-07T13:12:20.915Z,2.91
2022-12-07T13:13:36.792Z,3.00
2022-12-07T13:14:57.498Z,2.99
2022-12-07T13:16:32.182Z,2.72
2022-12-07T13:18:01.057Z,2.74
2022-12-07T13:19:02.615Z,2.77
2022-12-07T13:20:04.957Z,2.79
2022-12-07T13:21:39.577Z,2.88
2022-12-07T13:23:00.924Z,2.89
2022-12-07T13:24:10.876Z,2.80
2022-12-07T13:25:21.174Z,2.84
2022-12-07T13:26:34.218Z,2.97
2022-12-07T13:27:37.962Z,2.94
2022-12-07T13:28:42.493Z,2.97
2022-12-07T13:29:44.203Z,3.02
2022-12-07T13:31:00.943Z,3.10
2022-12-07T13:32:02.576Z,3.14
2022-12-07T13:33:13.994Z,3.00
2022-12-07T13:34:29.047Z,3.05
2022-12-07T13:35:35.412Z,3.15
2022-12-07T13:36:40.544Z,3.17
2022-12-07T13:37:42.093Z,3.16
2022-12-07T13:38:52.221Z,3.10
2022-12-07T13:39:56.677Z,3.20
2022-12-07T13:41:03.190Z,3.30
2022-12-07T13:42:14.975Z,3.28
2022-12-07T13:43:18.189Z,3.23
2022-12-07T13:44:20.552Z,3.18
2022-12-07T13:45:24.610Z,3.07
2022-12-07T13:46:36.116Z,3.06
2022-12-07T13:47:44.287Z,3.07
2022-12-07T13:48:47.841Z,3.11
2022-12-07T13:49:53.715Z,3.02
2022-12-07T13:50:56.678Z,3.06
2022-12-07T13:52:15.696Z,3.26
2022-12-07T13:53:17.281Z,3.30
2022-12-07T13:54:21.168Z,3.25
2022-12-07T13:55:22.969Z,3.22
2022-12-07T13:56:28.948Z,3.23
2022-12-07T13:57:32.659Z,3.09
2022-12-07T13:58:34.752Z,3.12
2022-12-07T13:59:36.291Z,3.13
2022-12-07T14:00:37.992Z,3.17
2022-12-07T14:01:39.739Z,3.02
2022-12-07T14:02:56.816Z,3.17
2022-12-07T14:04:20.505Z,3.30
2022-12-07T14:05:26.687Z,3.16
2022-12-07T14:06:28.223Z,3.11
2022-12-07T14:07:29.794Z,3.30
2022-12-07T14:08:31.680Z,3.10
2022-12-07T14:09:34.548Z,3.09
2022-12-07T14:10:39.475Z,3.21
2022-12-07T14:11:41.031Z,3.16
2022-12-07T14:12:43.676Z,3.13
2022-12-07T14:13:59.129Z,3.01
2022-12-07T14:15:02.718Z,3.10
2022-12-07T14:16:18.969Z,3.11
2022-12-07T14:17:22.227Z,3.11
2022-12-07T14:18:28.593Z,3.07
2022-12-07T14:19:48.619Z,3.13
2022-12-07T14:20:50.721Z,3.08
2022-12-07T14:22:07.560Z,3.03
2022-12-07T14:23:28.492Z,3.07
2022-12-07T14:24:30.059Z,3.02
2022-12-07T14:25:34.579Z,2.99
2022-12-07T14:26:36.442Z,3.05
2022-12-07T14:27:37.959Z,3.11
2022-12-07T14:28:40.231Z,3.12
2022-12-07T14:29:41.759Z,3.12
2022-12-07T14:30:43.400Z,3.24
2022-12-07T14:31:45.053Z,3.13
2022-12-07T14:32:48.869Z,3.21
2022-12-07T14:33:59.852Z,3.10
2022-12-07T14:35:04.089Z,3.04
2022-12-07T14:36:06.318Z,3.08
2022-12-07T14:37:09.988Z,3.13